createdAt,value
2018-05-09T00:00:50.570Z,15.39
2018-05-09T00:03:18.509Z,15.25
2018-05-09T00:05:46.405Z,15.16
2018-05-09T00:08:14.448Z,15.03
2018-05-09T00:10:42.344Z,15.06
2018-05-09T00:13:10.309Z,15.23
2018-05-09T00:15:38.218Z,15.18
2018-05-09T00:18:06.139Z,15.01
2018-05-09T00:20:34.140Z,15.02
2018-05-09T00:23:02.136Z,15.00
2018-05-09T00:25:30.040Z,15.04
2018-05-09T00:27:58.540Z,14.98
2018-05-09T00:30:26.477Z,14.94
2018-05-09T00:32:54.418Z,14.98
2018-05-09T00:35:22.358Z,15.00
2018-05-09T00:37:50.348Z,14.93
2018-05-09T00:40:18.297Z,14.85
2018-05-09T00:42:46.625Z,14.88
2018-05-09T00:45:14.545Z,14.80
2018-05-09T00:47:42.484Z,14.81
2018-05-09T00:50:10.494Z,14.82
2018-05-09T00:52:38.729Z,14.85
2018-05-09T00:55:06.632Z,14.78
2018-05-09T00:57:34.575Z,14.78
2018-05-09T01:00:02.514Z,14.73
2018-05-09T01:02:30.428Z,14.77
2018-05-09T01:04:58.529Z,14.68
2018-05-09T01:07:26.547Z,14.69
2018-05-09T01:09:54.462Z,14.59
2018-05-09T01:12:22.405Z,14.62
2018-05-09T01:14:50.398Z,14.67
2018-05-09T01:17:18.410Z,14.64
2018-05-09T01:19:46.316Z,14.67
2018-05-09T01:22:14.469Z,14.66
2018-05-09T01:24:42.380Z,14.59
2018-05-09T01:27:10.345Z,14.55
2018-05-09T01:29:38.270Z,14.66
2018-05-09T01:32:06.190Z,14.57
2018-05-09T01:34:34.110Z,14.62
2018-05-09T01:37:02.035Z,14.70
2018-05-09T01:39:30.064Z,14.60
2018-05-09T01:41:57.992Z,14.60
2018-05-09T01:44:25.963Z,14.68
2018-05-09T01:46:53.888Z,14.59
2018-05-09T01:49:21.868Z,14.60
2018-05-09T01:51:49.869Z,14.58
2018-05-09T01:54:17.784Z,14.55
2018-05-09T01:56:45.705Z,14.57
2018-05-09T01:59:13.630Z,14.58
2018-05-09T02:01:41.648Z,14.55
2018-05-09T02:04:09.649Z,14.49
2018-05-09T02:06:37.587Z,14.47
2018-05-09T02:09:06.320Z,14.34
2018-05-09T02:11:34.232Z,14.28
2018-05-09T02:14:02.140Z,14.23
2018-05-09T02:16:30.192Z,14.20
2018-05-09T02:18:58.328Z,14.25
2018-05-09T02:21:26.354Z,14.24
2018-05-09T02:23:54.470Z,14.21
2018-05-09T02:26:22.393Z,14.14
2018-05-09T02:28:50.362Z,14.25
2018-05-09T02:31:18.367Z,14.26
2018-05-09T02:33:46.246Z,14.26
2018-05-09T02:36:14.199Z,14.33
2018-05-09T02:38:42.138Z,14.24
2018-05-09T02:41:10.069Z,14.25
2018-05-09T02:43:38.067Z,14.25
2018-05-09T02:46:05.927Z,14.25
2018-05-09T02:48:33.847Z,14.17
2018-05-09T02:51:01.764Z,14.07
2018-05-09T02:53:29.746Z,14.10
2018-05-09T02:55:57.686Z,14.11
2018-05-09T02:58:25.643Z,14.13
2018-05-09T03:00:53.584Z,14.15
2018-05-09T03:03:21.511Z,14.18
2018-05-09T03:05:49.437Z,14.07
2018-05-09T03:08:17.388Z,14.09
2018-05-09T03:10:45.386Z,14.11
2018-05-09T03:13:13.329Z,14.08
2018-05-09T03:15:41.341Z,14.10
2018-05-09T03:18:09.281Z,14.14
2018-05-09T03:20:37.349Z,14.15
2018-05-09T03:23:05.379Z,14.22
2018-05-09T03:25:33.323Z,14.24
2018-05-09T03:28:01.249Z,14.23
2018-05-09T03:30:30.322Z,14.21
2018-05-09T03:32:58.451Z,14.25
2018-05-09T03:35:26.449Z,14.29
2018-05-09T03:37:54.468Z,14.35
2018-05-09T03:40:22.488Z,14.29
2018-05-09T03:42:50.533Z,14.27
2018-05-09T03:45:18.785Z,14.49
2018-05-09T03:47:46.777Z,14.50
2018-05-09T03:50:14.771Z,14.42
2018-05-09T03:52:42.788Z,14.35
2018-05-09T03:55:10.787Z,14.25
2018-05-09T03:57:38.768Z,14.11
2018-05-09T04:00:06.752Z,14.04
2018-05-09T04:02:46.700Z,14.06
2018-05-09T04:05:26.505Z,14.33
2018-05-09T04:08:06.400Z,14.22
2018-05-09T04:10:34.442Z,14.44
2018-05-09T04:13:02.456Z,14.39
2018-05-09T04:15:30.461Z,14.51
2018-05-09T04:17:58.443Z,14.39
2018-05-09T04:20:27.303Z,14.32
2018-05-09T04:22:55.606Z,14.41
2018-05-09T04:25:23.620Z,14.47
2018-05-09T04:27:51.693Z,14.45
2018-05-09T04:30:19.761Z,14.51
2018-05-09T04:32:47.732Z,14.47
2018-05-09T04:35:15.819Z,14.52
2018-05-09T04:37:43.886Z,14.55
2018-05-09T04:40:11.892Z,14.63
2018-05-09T04:42:39.997Z,14.75
2018-05-09T04:45:07.999Z,14.77
2018-05-09T04:47:36.020Z,14.70
2018-05-09T04:50:04.184Z,14.82
2018-05-09T04:52:32.281Z,14.84
2018-05-09T04:55:00.318Z,14.89
2018-05-09T04:57:28.268Z,14.92
2018-05-09T04:59:56.269Z,15.00
2018-05-09T05:02:24.293Z,15.07
2018-05-09T05:04:52.330Z,15.10
2018-05-09T05:07:20.320Z,15.13
2018-05-09T05:09:48.296Z,15.18
2018-05-09T05:12:16.484Z,15.17
2018-05-09T05:14:44.492Z,15.37
2018-05-09T05:17:13.383Z,15.58
2018-05-09T05:19:41.470Z,15.66
2018-05-09T05:22:09.634Z,15.81
2018-05-09T05:24:37.616Z,15.95
2018-05-09T05:27:05.659Z,15.95
2018-05-09T05:29:33.608Z,16.08
2018-05-09T05:32:01.640Z,16.17
2018-05-09T05:34:29.671Z,16.27
2018-05-09T05:36:57.703Z,16.35
2018-05-09T05:39:25.707Z,16.43
2018-05-09T05:41:53.709Z,16.57
2018-05-09T05:44:21.860Z,16.59
2018-05-09T05:46:49.868Z,16.82
2018-05-09T05:49:17.916Z,16.89
2018-05-09T05:51:45.906Z,16.79
2018-05-09T05:54:13.884Z,16.82
2018-05-09T05:56:41.966Z,16.78
2018-05-09T05:59:09.956Z,16.90
2018-05-09T06:01:37.932Z,17.01
2018-05-09T06:04:05.929Z,17.08
2018-05-09T06:06:33.912Z,17.10
2018-05-09T06:09:01.912Z,17.29
2018-05-09T06:11:29.897Z,17.15
2018-05-09T06:13:57.879Z,17.33
2018-05-09T06:16:25.869Z,17.33
2018-05-09T06:18:53.888Z,17.38
2018-05-09T06:21:21.932Z,17.36
2018-05-09T06:23:49.951Z,17.52
2018-05-09T06:26:18.048Z,17.65
2018-05-09T06:28:46.040Z,17.76
2018-05-09T06:31:14.021Z,17.81
2018-05-09T06:33:42.021Z,17.92
2018-05-09T06:36:10.026Z,18.14
2018-05-09T06:38:38.047Z,18.41
2018-05-09T06:41:06.048Z,18.69
2018-05-09T06:43:34.045Z,19.16
2018-05-09T06:46:02.089Z,19.45
2018-05-09T06:48:30.064Z,19.81
2018-05-09T06:50:58.115Z,19.74
2018-05-09T06:53:26.109Z,20.25
2018-05-09T06:55:54.152Z,20.78
2018-05-09T06:58:22.237Z,20.56
2018-05-09T07:00:50.259Z,20.72
2018-05-09T07:03:18.287Z,20.66
2018-05-09T07:05:46.286Z,21.06
2018-05-09T07:08:14.276Z,21.34
2018-05-09T07:10:42.342Z,21.68
2018-05-09T07:13:10.415Z,21.61
2018-05-09T07:15:38.568Z,21.81
2018-05-09T07:18:06.566Z,22.24
2018-05-09T07:20:34.594Z,22.32
2018-05-09T07:23:02.618Z,23.00
2018-05-09T07:25:30.627Z,23.02
2018-05-09T07:27:58.780Z,23.50
2018-05-09T07:30:26.826Z,23.25
2018-05-09T07:32:54.866Z,23.40
2018-05-09T07:35:22.930Z,23.67
2018-05-09T07:37:50.902Z,24.04
2018-05-09T07:40:18.931Z,24.34
2018-05-09T07:42:46.937Z,24.23
2018-05-09T07:45:14.940Z,23.96
2018-05-09T07:47:43.050Z,24.40
2018-05-09T07:50:10.960Z,24.89
2018-05-09T07:52:39.080Z,25.27
2018-05-09T07:55:07.140Z,25.18
2018-05-09T07:57:35.284Z,24.93
2018-05-09T08:00:03.340Z,25.45
2018-05-09T08:02:31.427Z,25.74
2018-05-09T08:04:59.517Z,25.72
2018-05-09T08:07:27.590Z,26.24
2018-05-09T08:09:55.572Z,26.38
2018-05-09T08:12:23.749Z,26.69
2018-05-09T08:14:51.790Z,27.04
2018-05-09T08:17:19.780Z,26.85
2018-05-09T08:19:47.831Z,26.58
2018-05-09T08:22:15.817Z,26.85
2018-05-09T08:24:43.900Z,26.78
2018-05-09T08:27:11.887Z,27.00
2018-05-09T08:29:39.906Z,26.98
2018-05-09T08:32:08.045Z,27.20
2018-05-09T08:34:36.045Z,27.14
2018-05-09T08:37:04.083Z,27.02
2018-05-09T08:39:32.121Z,27.19
2018-05-09T08:42:00.309Z,27.16
2018-05-09T08:44:28.294Z,27.32
2018-05-09T08:46:56.482Z,27.74
2018-05-09T08:49:25.088Z,27.87
2018-05-09T08:51:53.121Z,28.03
2018-05-09T08:54:21.161Z,28.27
2018-05-09T08:56:49.211Z,28.53
2018-05-09T08:59:17.741Z,28.78
2018-05-09T09:01:46.467Z,29.00
2018-05-09T09:04:14.493Z,29.38
2018-05-09T09:06:42.550Z,29.52
2018-05-09T09:09:10.577Z,29.62
2018-05-09T09:11:38.593Z,29.50
2018-05-09T09:14:06.592Z,29.33
2018-05-09T09:16:34.625Z,29.67
2018-05-09T09:19:02.628Z,30.05
2018-05-09T09:21:30.638Z,30.05
2018-05-09T09:23:58.740Z,29.60
2018-05-09T09:26:26.804Z,29.95
2018-05-09T09:28:54.846Z,30.08
2018-05-09T09:31:22.844Z,30.35
2018-05-09T09:33:50.833Z,30.22
2018-05-09T09:36:18.895Z,30.46
2018-05-09T09:38:46.959Z,30.87
2018-05-09T09:41:15.030Z,31.02
2018-05-09T09:43:43.152Z,31.08
2018-05-09T09:46:11.217Z,31.26
2018-05-09T09:48:39.313Z,31.04
2018-05-09T09:51:07.345Z,31.57
2018-05-09T09:53:35.463Z,31.80
2018-05-09T09:56:03.465Z,31.88
2018-05-09T09:58:31.480Z,31.89
2018-05-09T10:00:59.490Z,30.19
2018-05-09T10:03:27.477Z,30.68
2018-05-09T10:05:55.479Z,31.11
2018-05-09T10:08:24.217Z,31.48
2018-05-09T10:10:52.266Z,31.71
2018-05-09T10:13:20.259Z,31.34
2018-05-09T10:15:48.337Z,31.63
2018-05-09T10:18:16.309Z,32.01
2018-05-09T10:20:44.347Z,32.02
2018-05-09T10:23:12.401Z,32.19
2018-05-09T10:25:40.489Z,32.13
2018-05-09T10:28:08.493Z,31.58
2018-05-09T10:30:36.485Z,31.75
2018-05-09T10:33:04.468Z,32.31
2018-05-09T10:35:32.603Z,32.47
2018-05-09T10:38:00.600Z,32.73
2018-05-09T10:40:28.616Z,32.53
2018-05-09T10:42:56.909Z,32.56
2018-05-09T10:45:24.934Z,32.39
2018-05-09T10:47:52.968Z,31.22
2018-05-09T10:50:20.965Z,31.54
2018-05-09T10:52:49.037Z,31.12
2018-05-09T10:55:17.429Z,31.57
2018-05-09T10:57:48.279Z,31.88
2018-05-09T11:00:16.283Z,31.78
2018-05-09T11:02:44.343Z,32.25
2018-05-09T11:05:12.500Z,32.14
2018-05-09T11:07:40.501Z,32.23
2018-05-09T11:10:09.008Z,31.94
2018-05-09T11:12:37.421Z,31.23
2018-05-09T11:15:05.468Z,31.13
2018-05-09T11:17:33.551Z,31.26
2018-05-09T11:20:01.571Z,30.77
2018-05-09T11:22:29.674Z,30.63
2018-05-09T11:24:57.678Z,30.90
2018-05-09T11:27:25.731Z,31.16
2018-05-09T11:29:53.777Z,31.50
2018-05-09T11:32:21.793Z,31.04
2018-05-09T11:34:50.886Z,31.28
2018-05-09T11:37:19.025Z,31.44
2018-05-09T11:39:47.064Z,30.75
2018-05-09T11:42:15.061Z,31.05
2018-05-09T11:44:44.098Z,31.30
2018-05-09T11:47:12.092Z,31.13
2018-05-09T11:49:40.094Z,31.43
2018-05-09T11:52:08.134Z,31.88
2018-05-09T11:54:36.765Z,31.66
2018-05-09T11:57:04.764Z,31.70
2018-05-09T11:59:32.796Z,31.66
2018-05-09T12:02:00.796Z,31.46
2018-05-09T12:04:29.160Z,31.78
2018-05-09T12:06:57.191Z,31.70
2018-05-09T12:09:25.349Z,31.72
2018-05-09T12:11:53.615Z,31.95
2018-05-09T12:14:21.672Z,31.71
2018-05-09T12:16:49.688Z,31.49
2018-05-09T12:19:17.666Z,31.58
2018-05-09T12:21:45.678Z,31.67
2018-05-09T12:24:13.704Z,31.85
2018-05-09T12:26:41.788Z,32.18
2018-05-09T12:29:09.785Z,32.05
2018-05-09T12:31:37.820Z,31.42
2018-05-09T12:34:05.829Z,31.48
2018-05-09T12:36:33.838Z,31.64
2018-05-09T12:39:01.838Z,32.10
2018-05-09T12:41:29.874Z,32.42
2018-05-09T12:43:57.914Z,32.49
2018-05-09T12:46:25.932Z,32.75
2018-05-09T12:48:54.144Z,32.50
2018-05-09T12:51:22.056Z,32.78
2018-05-09T12:53:50.049Z,32.91
2018-05-09T12:56:18.021Z,33.21
2018-05-09T12:58:46.135Z,33.23
2018-05-09T13:01:14.172Z,32.81
2018-05-09T13:03:42.229Z,32.75
2018-05-09T13:06:10.310Z,33.08
2018-05-09T13:08:38.316Z,32.84
2018-05-09T13:11:06.349Z,32.19
2018-05-09T13:13:34.360Z,32.12
2018-05-09T13:16:02.364Z,31.57
2018-05-09T13:18:30.468Z,31.80
2018-05-09T13:20:58.475Z,31.82
2018-05-09T13:23:26.497Z,31.53
2018-05-09T13:25:54.705Z,31.45
2018-05-09T13:28:22.989Z,31.64
2018-05-09T13:30:51.207Z,31.76
2018-05-09T13:33:19.459Z,31.51
2018-05-09T13:35:47.542Z,31.29
2018-05-09T13:38:15.756Z,31.56
2018-05-09T13:40:43.772Z,31.74
2018-05-09T13:43:12.067Z,31.84
2018-05-09T13:45:40.073Z,31.54
2018-05-09T13:48:08.093Z,31.50
2018-05-09T13:50:36.164Z,31.37
2018-05-09T13:53:05.066Z,31.55
2018-05-09T13:55:33.060Z,31.41
2018-05-09T13:58:01.074Z,31.23
2018-05-09T14:00:29.318Z,31.30
2018-05-09T14:02:57.364Z,31.36
2018-05-09T14:05:25.413Z,30.93
2018-05-09T14:07:53.421Z,30.79
2018-05-09T14:10:21.469Z,30.78
2018-05-09T14:12:49.525Z,30.48
2018-05-09T14:15:17.616Z,30.37
2018-05-09T14:17:45.684Z,30.38
2018-05-09T14:20:13.720Z,30.12
2018-05-09T14:22:41.707Z,30.38
2018-05-09T14:25:09.772Z,30.41
2018-05-09T14:27:37.731Z,30.55
2018-05-09T14:30:05.891Z,30.52
2018-05-09T14:32:33.890Z,30.30
2018-05-09T14:35:01.909Z,30.20
2018-05-09T14:37:29.975Z,30.19
2018-05-09T14:39:57.987Z,30.05
2018-05-09T14:42:26.012Z,29.87
2018-05-09T14:44:54.035Z,30.06
2018-05-09T14:47:22.028Z,29.59
2018-05-09T14:49:50.024Z,29.32
2018-05-09T14:52:18.010Z,29.52
2018-05-09T14:54:46.004Z,29.12
2018-05-09T14:57:14.036Z,29.19
2018-05-09T14:59:42.004Z,28.83
2018-05-09T15:02:10.001Z,28.72
2018-05-09T15:04:37.970Z,28.45
2018-05-09T15:07:06.041Z,28.33
2018-05-09T15:09:34.040Z,28.40
2018-05-09T15:12:02.025Z,28.63
2018-05-09T15:14:30.016Z,28.40
2018-05-09T15:16:58.099Z,28.39
2018-05-09T15:19:26.123Z,28.44
2018-05-09T15:21:54.131Z,28.13
2018-05-09T15:24:22.622Z,27.94
2018-05-09T15:26:51.362Z,27.69
2018-05-09T15:29:19.356Z,27.57
2018-05-09T15:31:47.346Z,27.55
2018-05-09T15:34:15.348Z,27.53
2018-05-09T15:36:43.312Z,27.39
2018-05-09T15:39:11.447Z,27.29
2018-05-09T15:41:39.452Z,27.13
2018-05-09T15:44:07.531Z,27.09
2018-05-09T15:46:35.618Z,27.22
2018-05-09T15:49:03.803Z,27.00
2018-05-09T15:51:31.803Z,26.99
2018-05-09T15:53:59.777Z,26.87
2018-05-09T15:56:27.809Z,26.78
2018-05-09T15:58:55.829Z,26.71
2018-05-09T16:01:23.840Z,26.73
2018-05-09T16:03:52.398Z,26.58
2018-05-09T16:06:20.505Z,26.58
2018-05-09T16:08:48.578Z,26.61
2018-05-09T16:11:17.445Z,26.50
2018-05-09T16:13:46.313Z,26.46
2018-05-09T16:16:14.326Z,26.33
2018-05-09T16:18:42.446Z,26.21
2018-05-09T16:21:10.512Z,26.35
2018-05-09T16:23:38.508Z,25.83
2018-05-09T16:26:06.665Z,26.03
2018-05-09T16:28:34.653Z,25.95
2018-05-09T16:31:02.684Z,25.63
2018-05-09T16:33:34.662Z,25.45
2018-05-09T16:36:02.733Z,25.09
2018-05-09T16:38:30.727Z,24.91
2018-05-09T16:40:59.172Z,25.16
2018-05-09T16:43:27.175Z,25.28
2018-05-09T16:45:55.166Z,25.21
2018-05-09T16:48:24.285Z,25.18
2018-05-09T16:50:52.306Z,24.49
2018-05-09T16:53:27.227Z,24.47
2018-05-09T16:55:55.424Z,24.28
2018-05-09T16:58:23.407Z,24.53
2018-05-09T17:00:51.387Z,24.61
2018-05-09T17:03:19.448Z,24.65
2018-05-09T17:05:47.468Z,24.71
2018-05-09T17:08:15.601Z,24.43
2018-05-09T17:10:43.622Z,24.28
2018-05-09T17:13:13.145Z,24.18
2018-05-09T17:15:41.144Z,24.09
2018-05-09T17:18:09.155Z,24.05
2018-05-09T17:20:37.152Z,23.81
2018-05-09T17:23:05.181Z,23.74
2018-05-09T17:25:33.169Z,23.88
2018-05-09T17:28:01.160Z,23.80
2018-05-09T17:30:29.835Z,23.73
2018-05-09T17:32:57.744Z,23.60
2018-05-09T17:35:25.795Z,23.53
2018-05-09T17:37:53.790Z,23.47
2018-05-09T17:40:21.779Z,23.34
2018-05-09T17:42:49.824Z,23.24
2018-05-09T17:45:17.809Z,23.30
2018-05-09T17:47:45.897Z,23.18
2018-05-09T17:50:13.921Z,23.15
2018-05-09T17:52:42.080Z,23.09
2018-05-09T17:55:10.065Z,22.96
2018-05-09T17:57:38.048Z,22.85
2018-05-09T18:00:06.061Z,22.86
2018-05-09T18:02:40.238Z,22.70
2018-05-09T18:05:08.477Z,22.58
2018-05-09T18:07:36.467Z,22.47
2018-05-09T18:10:04.489Z,22.58
2018-05-09T18:12:32.470Z,22.16
2018-05-09T18:15:00.489Z,22.25
2018-05-09T18:17:28.681Z,21.99
2018-05-09T18:19:56.698Z,22.10
2018-05-09T18:22:24.819Z,22.09
2018-05-09T18:24:53.153Z,22.02
2018-05-09T18:27:21.150Z,22.16
2018-05-09T18:29:49.195Z,22.01
2018-05-09T18:32:17.205Z,21.83
2018-05-09T18:34:45.195Z,21.93
2018-05-09T18:37:13.171Z,21.73
2018-05-09T18:39:41.175Z,21.63
2018-05-09T18:42:09.160Z,21.74
2018-05-09T18:44:37.169Z,21.54
2018-05-09T18:47:05.178Z,21.44
2018-05-09T18:49:33.174Z,21.51
2018-05-09T18:52:01.164Z,21.44
2018-05-09T18:54:29.200Z,21.31
2018-05-09T18:56:57.308Z,21.33
2018-05-09T18:59:25.289Z,21.15
2018-05-09T19:01:53.344Z,21.13
2018-05-09T19:04:21.376Z,20.90
2018-05-09T19:06:49.413Z,20.90
2018-05-09T19:09:17.396Z,20.88
2018-05-09T19:11:45.396Z,20.77
2018-05-09T19:14:13.516Z,20.61
2018-05-09T19:16:41.504Z,20.58
2018-05-09T19:19:09.534Z,20.29
2018-05-09T19:21:37.566Z,20.68
2018-05-09T19:24:05.569Z,20.69
2018-05-09T19:26:33.555Z,20.55
2018-05-09T19:29:01.548Z,20.49
2018-05-09T19:31:34.337Z,20.33
2018-05-09T19:34:02.429Z,20.25
2018-05-09T19:36:30.398Z,20.19
2018-05-09T19:38:58.365Z,20.21
2018-05-09T19:41:27.230Z,20.17
2018-05-09T19:43:58.439Z,19.95
2018-05-09T19:46:26.461Z,19.88
2018-05-09T19:48:54.529Z,19.89
2018-05-09T19:51:22.522Z,20.10
2018-05-09T19:53:50.606Z,19.97
2018-05-09T19:56:18.624Z,19.96
2018-05-09T19:58:46.637Z,20.02
2018-05-09T20:01:14.648Z,19.91
2018-05-09T20:03:42.637Z,19.79
2018-05-09T20:06:10.852Z,19.98
2018-05-09T20:08:38.974Z,19.74
2018-05-09T20:11:06.949Z,19.70
2018-05-09T20:13:35.037Z,19.55
2018-05-09T20:16:03.059Z,19.43
2018-05-09T20:18:31.147Z,19.24
2018-05-09T20:20:59.147Z,19.56
2018-05-09T20:23:27.160Z,19.32
2018-05-09T20:25:55.269Z,19.23
2018-05-09T20:28:23.348Z,19.30
2018-05-09T20:30:56.930Z,19.46
2018-05-09T20:33:25.156Z,19.28
2018-05-09T20:35:53.137Z,19.11
2018-05-09T20:38:21.157Z,18.93
2018-05-09T20:40:49.186Z,18.82
2018-05-09T20:43:17.161Z,18.91
2018-05-09T20:45:45.176Z,18.98
2018-05-09T20:48:13.173Z,18.67
2018-05-09T20:50:41.176Z,18.58
2018-05-09T20:53:09.214Z,18.40
2018-05-09T20:55:37.224Z,18.44
2018-05-09T20:58:05.198Z,18.55
2018-05-09T21:00:33.246Z,18.34
2018-05-09T21:03:01.419Z,18.29
2018-05-09T21:05:29.505Z,18.62
2018-05-09T21:07:57.749Z,18.57
2018-05-09T21:10:25.814Z,18.53
2018-05-09T21:12:53.808Z,18.51
2018-05-09T21:15:21.897Z,18.86
2018-05-09T21:17:49.927Z,18.89
2018-05-09T21:20:18.053Z,18.68
2018-05-09T21:22:46.063Z,18.74
2018-05-09T21:25:14.072Z,18.56
2018-05-09T21:27:42.135Z,18.50
2018-05-09T21:30:10.117Z,18.34
2018-05-09T21:32:38.144Z,18.43
2018-05-09T21:35:06.169Z,18.26
2018-05-09T21:37:34.159Z,18.11
2018-05-09T21:40:02.267Z,17.99
2018-05-09T21:42:30.315Z,17.79
2018-05-09T21:44:58.432Z,17.81
2018-05-09T21:47:27.184Z,17.61
2018-05-09T21:49:55.202Z,17.61
2018-05-09T21:52:23.227Z,17.48
2018-05-09T21:54:51.537Z,17.48
2018-05-09T21:57:19.841Z,17.52
2018-05-09T21:59:47.818Z,17.60
2018-05-09T22:02:15.805Z,17.78
2018-05-09T22:04:43.820Z,17.84
2018-05-09T22:07:11.860Z,17.81
2018-05-09T22:09:39.958Z,17.66
2018-05-09T22:12:08.023Z,17.56
2018-05-09T22:14:36.094Z,17.63
2018-05-09T22:17:04.122Z,17.51
2018-05-09T22:19:32.367Z,17.56
2018-05-09T22:22:00.464Z,17.58
2018-05-09T22:24:29.232Z,17.64
2018-05-09T22:26:57.222Z,17.73
2018-05-09T22:29:25.244Z,17.77
2018-05-09T22:31:53.265Z,17.85
2018-05-09T22:34:21.256Z,17.64
2018-05-09T22:36:49.252Z,17.78
2018-05-09T22:39:17.334Z,17.75
2018-05-09T22:41:45.312Z,17.59
2018-05-09T22:44:13.437Z,17.73
2018-05-09T22:46:41.467Z,17.65
2018-05-09T22:49:09.488Z,17.76
2018-05-09T22:51:37.683Z,17.59
2018-05-09T22:54:05.691Z,17.38
2018-05-09T22:56:33.736Z,17.38
2018-05-09T22:59:01.772Z,17.40
2018-05-09T23:01:29.772Z,17.47
2018-05-09T23:03:57.773Z,17.43
2018-05-09T23:06:25.888Z,17.39
2018-05-09T23:08:53.923Z,17.28
2018-05-09T23:11:22.000Z,17.16
2018-05-09T23:13:50.734Z,17.14
2018-05-09T23:16:18.711Z,17.11
2018-05-09T23:18:46.693Z,17.14
2018-05-09T23:21:14.691Z,17.16
2018-05-09T23:23:42.705Z,17.14
2018-05-09T23:26:10.727Z,17.05
2018-05-09T23:28:38.766Z,17.00
2018-05-09T23:31:06.765Z,16.88
2018-05-09T23:33:34.832Z,16.99
2018-05-09T23:36:02.869Z,16.89
2018-05-09T23:38:30.864Z,16.77
2018-05-09T23:40:58.883Z,16.88
2018-05-09T23:43:26.875Z,16.93
2018-05-09T23:45:54.972Z,17.00
2018-05-09T23:48:22.946Z,16.92
2018-05-09T23:50:50.994Z,16.90
2018-05-09T23:53:19.005Z,16.80
2018-05-09T23:55:47.105Z,16.90
2018-05-09T23:58:15.102Z,16.82
